WetterOnline ( http://www.wetteronline.ch )

Wetter aktuell Sauerland (in 400m)

Aktuelles Wetter: Lüdenscheid (392m)

6-stündlich | Neueste Meldungen
Ortszeit Temperatur Wetter
Do, 21.02. 1:00 3.4° C wolkenlos
Mi, 20.02. 19:00 6.0° C leicht bewölkt
Mi, 20.02. 13:00 7.9° C bedeckt
Mi, 20.02. 7:00 2.7° C wolkig
Mi, 20.02. 1:00 2.3° C wolkig
Di, 19.02. 19:00 6.1° C bewölkt
Di, 19.02. 13:00 7.7° C fast wolkenlos
Di, 19.02. 7:00 4.5° C Sprühregen
Ortszeit Temperatur Wetter
Do, 21.02. 2:30 3.2° C wolkig
Do, 21.02. 2:20 3.2° C wolkig
Do, 21.02. 2:10 3.2° C wolkig
Do, 21.02. 2:00 2.6° C wolkig
Do, 21.02. 1:50 2.6° C wolkig
Do, 21.02. 1:40 2.6° C wolkig
Do, 21.02. 1:30 3.1° C bewölkt
Do, 21.02. 1:00 3.4° C wolkenlos
Do, 21.02. 0:30 3.5° C fast wolkenlos
Do, 21.02. 0:00 3.2° C wolkenlos
Mi, 20.02. 23:30 3.7° C wolkenlos
Ortszeit Relative Feuchte Sichtweite
Do, 21.02. 1:00 84% 25 km
Mi, 20.02. 19:00 68% 35 km
Mi, 20.02. 13:00 65% 24 km
Mi, 20.02. 7:00 84% 21 km
Mi, 20.02. 1:00 85% 28 km
Di, 19.02. 19:00 68% 45 km
Di, 19.02. 13:00 61% 55 km
Di, 19.02. 7:00 92% 7 km
Ortszeit Relative Feuchte Sichtweite
Do, 21.02. 2:30 87% 20 km
Do, 21.02. 2:20 87% -
Do, 21.02. 2:10 87% -
Do, 21.02. 2:00 88% 19 km
Do, 21.02. 1:50 88% -
Do, 21.02. 1:40 87% -
Do, 21.02. 1:30 84% 22 km
Do, 21.02. 1:00 84% 25 km
Do, 21.02. 0:30 83% 27 km
Do, 21.02. 0:00 83% 27 km
Mi, 20.02. 23:30 82% 26 km
Ortszeit Niederschlagsmenge Niederschlagsart
Do, 21.02. 1:00 0.0 l/m2 in 6 Std. -
Mi, 20.02. 19:00 0.0 l/m2 in 12 Std. -
Mi, 20.02. 13:00 0.0 l/m2 in 6 Std. -
Mi, 20.02. 7:00 0.0 l/m2 in 12 Std. -
Mi, 20.02. 1:00 0.0 l/m2 in 6 Std. -
Di, 19.02. 19:00 0.1 l/m2 in 12 Std. -
Di, 19.02. 13:00 0.1 l/m2 in 6 Std. Regen
Di, 19.02. 7:00 0.5 l/m2 in 12 Std. Regen
Ortszeit Niederschlagsmenge Niederschlagsart
Do, 21.02. 2:30 0.0 l/m2 in 1 Std. -
Do, 21.02. 2:20 keine Meldung -
Do, 21.02. 2:10 keine Meldung -
Do, 21.02. 2:00 0.0 l/m2 in 1 Std. -
Do, 21.02. 1:50 keine Meldung -
Do, 21.02. 1:40 keine Meldung -
Do, 21.02. 1:30 0.0 l/m2 in 1 Std. -
Do, 21.02. 1:00 0.0 l/m2 in 1 Std. -
Do, 21.02. 0:30 0.0 l/m2 in 1 Std. -
Do, 21.02. 0:00 0.0 l/m2 in 1 Std. -
Mi, 20.02. 23:30 0.0 l/m2 in 1 Std. -
Ortszeit Stärke Spitze Richtung
km/h Bft. km/h Grad Sektor
Do, 21.02. 1:00 9 2 17 260° W
Mi, 20.02. 19:00 7 2 32 240° SW
Mi, 20.02. 13:00 17 3 30 220° SW
Mi, 20.02. 7:00 9 2 20 250° W
Mi, 20.02. 1:00 7 2 22 260° W
Di, 19.02. 19:00 15 3 43 250° W
Di, 19.02. 13:00 25 4 43 250° W
Di, 19.02. 7:00 11 2 29 260° W
Ortszeit Stärke Spitze Richtung
km/h Bft. km/h Grad Sektor
Do, 21.02. 2:30 6 1 11 270° W
Do, 21.02. 2:20 6 1 - 270° W
Do, 21.02. 2:10 7 2 - 260° W
Do, 21.02. 2:00 7 2 18 260° W
Do, 21.02. 1:50 7 2 - 260° W
Do, 21.02. 1:40 7 2 - 270° W
Do, 21.02. 1:30 9 2 17 260° W
Do, 21.02. 1:00 9 2 17 260° W
Do, 21.02. 0:30 11 2 14 260° W
Do, 21.02. 0:00 11 2 14 260° W
Mi, 20.02. 23:30 7 2 14 260° W
Ortszeit Untergrenze Bedeckung Gattung
total tief tief mittel hoch
Do, 21.02. 1:00 3600 m 0/8 0/8 - - -
Mi, 20.02. 19:00 1800 m 4/8 3/8 - - -
Mi, 20.02. 13:00 660 m 8/8 8/8 - - -
Mi, 20.02. 7:00 900 m 8/8 2/8 - - -
Mi, 20.02. 1:00 840 m 7/8 4/8 - - -
Di, 19.02. 19:00 1440 m 7/8 7/8 - - -
Di, 19.02. 13:00 1020 m 0/8 0/8 - - -
Di, 19.02. 7:00 300 m 8/8 8/8 - - -
Ortszeit Bedeckungsgrad in Achtel und Wolkenuntergrenze
Do, 21.02. 2:30 8(10500m)
Do, 21.02. 2:20 8(10500m)
Do, 21.02. 2:10 8(10500m)
Do, 21.02. 2:00 1(3300m) 8(10500m)
Do, 21.02. 1:50 1(3300m) 8(10500m)
Do, 21.02. 1:40 3(3300m) 8(12000m)
Do, 21.02. 1:30 7(3600m) 8(12000m)
Do, 21.02. 1:00 3(3600m)
Do, 21.02. 0:30 1(12000m)
Do, 21.02. 0:00 1(12000m)
Mi, 20.02. 23:30 keine Wolken
Ortszeit Luftdruck NN (hPa) Tendenz (hPa in 3 Std.)
Do, 21.02. 1:00 1026 + 0,6
Mi, 20.02. 19:00 1025 + 1,0
Mi, 20.02. 13:00 1024 + 0,4
Mi, 20.02. 7:00 1023 + 0,1
Mi, 20.02. 1:00 1023 + 0,4
Di, 19.02. 19:00 1021 + 0,8
Di, 19.02. 13:00 1019 + 0,3
Di, 19.02. 7:00 1018 + 0,9
Ortszeit Luftdruck NN (hPa) Tendenz (hPa in 3 Std.)
Do, 21.02. 2:30 1027 + 0,4
Do, 21.02. 2:20 1027 keine Meldung
Do, 21.02. 2:10 1027 keine Meldung
Do, 21.02. 2:00 1027 + 0,7
Do, 21.02. 1:50 1027 keine Meldung
Do, 21.02. 1:40 1027 keine Meldung
Do, 21.02. 1:30 1027 + 0,8
Do, 21.02. 1:00 1026 + 0,6
Do, 21.02. 0:30 1026 + 0,5
Do, 21.02. 0:00 1026 + 0,4
Mi, 20.02. 23:30 1026 + 0,5
Ortszeit Schneehöhe (cm)
Do, 21.02. 1:00 0
Mi, 20.02. 19:00 0
Mi, 20.02. 13:00 0
Mi, 20.02. 7:00 0
Mi, 20.02. 1:00 0
Di, 19.02. 19:00 0
Di, 19.02. 13:00 0
Di, 19.02. 7:00 0
Ortszeit Schneehöhe (cm)
Do, 21.02. 2:30 0
Do, 21.02. 2:20 0
Do, 21.02. 2:10 0
Do, 21.02. 2:00 0
Do, 21.02. 1:50 0
Do, 21.02. 1:40 0
Do, 21.02. 1:30 0
Do, 21.02. 1:00 0
Do, 21.02. 0:30 0
Do, 21.02. 0:00 0
Mi, 20.02. 23:30 0
Link zu dieser Seite / Seite empfehlen

Das Wetter in ...